Time;durP1;ratioP1;P1;durP2;ratioP2;P2;SDS_P1;SDS_P2;PMS_P1;PMS_P2;Temp;Humidity;BMP_temperature;BMP_pressure;BME280_temperature;BME280_humidity;BME280_pressure;Samples;Min_cycle;Max_cycle;Signal;HPM_P1;HPM_P2
2022/10/03 00:02:22;;;;;;;6.60;3.63;;;21.00;69.20;;;;;;4877598;28;90469;-80
2022/10/03 00:05:32;;;;;;;5.75;3.40;;;21.00;69.20;;;;;;4877209;28;88540;-80
2022/10/03 00:08:03;;;;;;;5.10;3.13;;;21.00;69.20;;;;;;4878275;28;88935;-80
2022/10/03 00:10:34;;;;;;;4.78;3.10;;;21.00;69.10;;;;;;4878601;28;87039;-80
2022/10/03 00:13:16;;;;;;;6.22;3.63;;;21.00;69.10;;;;;;4887922;28;87328;-81
2022/10/03 00:16:02;;;;;;;7.03;3.53;;;21.00;69.00;;;;;;4923472;28;91761;-81
2022/10/03 00:18:59;;;;;;;5.40;3.22;;;21.00;69.10;;;;;;4910781;28;88335;-81
2022/10/03 00:21:36;;;;;;;7.15;3.40;;;21.00;69.10;;;;;;4879182;28;87420;-80
2022/10/03 00:24:39;;;;;;;5.28;3.38;;;21.00;68.80;;;;;;4877821;28;86969;-81
2022/10/03 00:27:25;;;;;;;7.53;3.67;;;21.00;69.00;;;;;;4878359;28;87586;-80
2022/10/03 00:30:06;;;;;;;4.38;3.25;;;21.00;69.00;;;;;;4870148;28;90531;-80
2022/10/03 00:32:53;;;;;;;6.30;3.83;;;21.00;68.70;;;;;;4877179;28;88594;-80
2022/10/03 00:35:48;;;;;;;8.15;3.65;;;21.00;68.90;;;;;;4877871;28;91063;-80
2022/10/03 00:38:42;;;;;;;7.75;3.80;;;20.90;69.00;;;;;;4861255;28;88964;-81
2022/10/03 00:41:16;;;;;;;5.70;3.60;;;20.90;69.00;;;;;;4877683;28;88121;-80
2022/10/03 00:44:26;;;;;;;5.68;3.15;;;20.90;68.90;;;;;;4877188;28;87094;-80
2022/10/03 00:46:54;;;;;;;6.72;3.78;;;20.90;68.80;;;;;;4878087;28;87135;-81
2022/10/03 00:49:49;;;;;;;5.00;3.10;;;20.90;68.90;;;;;;4876829;28;91968;-81
2022/10/03 00:52:38;;;;;;;7.00;3.30;;;20.90;68.80;;;;;;4877377;28;86715;-80
2022/10/03 00:55:13;;;;;;;7.53;3.67;;;20.90;68.90;;;;;;4877666;28;90696;-81
2022/10/03 00:57:47;;;;;;;6.00;3.20;;;20.90;68.80;;;;;;4876399;28;87419;-81
2022/10/03 01:00:16;;;;;;;4.25;2.92;;;20.90;68.70;;;;;;4868988;28;91396;-81
2022/10/03 01:02:54;;;;;;;5.43;3.25;;;20.90;68.80;;;;;;4899036;28;91486;-80
2022/10/03 01:06:03;;;;;;;7.55;3.40;;;20.90;68.90;;;;;;4916559;28;87598;-80
2022/10/03 01:08:47;;;;;;;8.85;3.50;;;20.90;68.80;;;;;;4895835;28;91072;-81
2022/10/03 01:11:27;;;;;;;4.43;2.75;;;20.90;68.80;;;;;;4895276;28;88296;-80
2022/10/03 01:14:00;;;;;;;6.93;3.80;;;20.90;68.60;;;;;;4879417;28;91397;-81
2022/10/03 01:16:53;;;;;;;6.30;3.78;;;20.90;68.70;;;;;;4895627;28;87384;-80
2022/10/03 01:19:44;;;;;;;4.43;2.90;;;20.80;68.60;;;;;;4896286;28;86762;-80
2022/10/03 01:22:30;;;;;;;5.30;2.92;;;20.80;68.70;;;;;;4896350;28;88278;-80
2022/10/03 01:25:16;;;;;;;4.82;2.88;;;20.80;68.60;;;;;;4872458;28;90227;-80
2022/10/03 01:30:58;;;;;;;5.80;3.57;;;20.80;68.50;;;;;;4889722;28;87304;-80
2022/10/03 01:33:36;;;;;;;4.70;3.17;;;20.80;68.50;;;;;;4896054;28;88619;-80
2022/10/03 01:36:06;;;;;;;4.60;3.25;;;20.80;68.70;;;;;;4895992;28;88067;-81
2022/10/03 01:38:50;;;;;;;4.75;3.22;;;20.80;68.50;;;;;;4883882;28;87576;-80
2022/10/03 01:41:27;;;;;;;5.72;3.10;;;20.80;68.50;;;;;;4896710;28;91531;-80
2022/10/03 01:44:05;;;;;;;6.47;3.28;;;20.80;68.40;;;;;;4937599;28;88202;-80
2022/10/03 01:46:37;;;;;;;5.45;3.60;;;20.80;68.40;;;;;;4936974;28;86978;-80
2022/10/03 01:49:06;;;;;;;6.28;3.13;;;20.70;68.40;;;;;;4936051;28;87380;-81
2022/10/03 01:51:58;;;;;;;6.85;3.33;;;20.70;68.30;;;;;;4936513;28;87489;-80
2022/10/03 01:54:31;;;;;;;5.65;3.25;;;20.70;68.50;;;;;;4937011;28;89923;-81
2022/10/03 01:57:01;;;;;;;6.75;3.35;;;20.80;68.70;;;;;;4936707;28;87139;-80
2022/10/03 01:59:34;;;;;;;5.78;3.55;;;20.70;68.40;;;;;;4945352;28;86969;-80
2022/10/03 02:02:00;;;;;;;7.63;3.20;;;20.80;68.40;;;;;;4947176;28;87422;-80
2022/10/03 02:04:32;;;;;;;6.15;3.70;;;20.70;68.50;;;;;;4945546;28;87439;-80
2022/10/03 02:07:10;;;;;;;4.03;2.72;;;20.70;68.30;;;;;;4945761;28;88621;-80
2022/10/03 02:10:06;;;;;;;3.80;2.65;;;20.70;68.30;;;;;;4944476;28;86868;-80
2022/10/03 02:12:35;;;;;;;5.50;3.20;;;20.70;68.50;;;;;;4946080;28;87208;-80
2022/10/03 02:15:20;;;;;;;3.58;3.05;;;20.70;68.40;;;;;;4933773;28;88204;-81
2022/10/03 02:18:10;;;;;;;5.63;2.85;;;20.70;68.20;;;;;;4947612;28;89426;-81
2022/10/03 02:21:13;;;;;;;5.45;3.22;;;20.70;68.30;;;;;;4936608;28;88198;-80
2022/10/03 02:23:43;;;;;;;4.30;2.65;;;20.70;68.10;;;;;;4917801;28;91680;-81
2022/10/03 02:26:41;;;;;;;4.70;2.90;;;20.60;68.10;;;;;;4935759;28;87957;-80
2022/10/03 02:29:37;;;;;;;4.80;2.90;;;20.60;68.40;;;;;;4928592;28;87623;-80
2022/10/03 02:32:40;;;;;;;4.80;2.72;;;20.60;68.20;;;;;;4937158;28;87469;-80
2022/10/03 02:35:25;;;;;;;5.85;3.05;;;20.70;68.10;;;;;;4935311;28;87753;-80
2022/10/03 02:37:56;;;;;;;6.35;3.22;;;20.60;68.10;;;;;;4919133;28;90163;-80
2022/10/03 02:40:41;;;;;;;3.72;2.97;;;20.60;68.20;;;;;;4936675;28;88399;-80
2022/10/03 02:43:40;;;;;;;3.58;3.05;;;20.60;68.10;;;;;;4936821;28;87993;-80
2022/10/03 02:46:18;;;;;;;4.50;2.42;;;20.60;68.00;;;;;;4936760;28;88073;-80
2022/10/03 02:48:56;;;;;;;4.63;2.42;;;20.60;68.00;;;;;;4935362;28;89770;-81
2022/10/03 02:51:41;;;;;;;5.30;2.83;;;20.60;68.10;;;;;;4935995;28;90397;-80
2022/10/03 02:54:13;;;;;;;4.78;3.15;;;20.60;68.10;;;;;;4935760;28;87217;-81
2022/10/03 02:57:04;;;;;;;3.65;2.88;;;20.60;68.10;;;;;;4919660;28;89908;-80
2022/10/03 03:00:01;;;;;;;3.67;2.65;;;20.60;68.00;;;;;;4935086;28;92845;-80
2022/10/03 03:02:42;;;;;;;4.07;2.50;;;20.50;68.00;;;;;;4875151;28;92572;-80
2022/10/03 03:05:23;;;;;;;4.35;2.70;;;20.60;67.70;;;;;;4866512;28;87110;-81
2022/10/03 03:08:26;;;;;;;4.40;2.55;;;20.60;67.80;;;;;;4876135;28;86788;-80
2022/10/03 03:11:36;;;;;;;4.57;2.80;;;20.60;67.90;;;;;;4875652;28;87571;-81
2022/10/03 03:14:28;;;;;;;3.38;2.38;;;20.50;67.70;;;;;;4838708;29;88809;-80
2022/10/03 03:17:13;;;;;;;2.65;2.25;;;20.50;67.70;;;;;;4821780;29;88244;-80
2022/10/03 03:20:02;;;;;;;5.28;3.08;;;20.60;67.80;;;;;;4819051;29;88086;-80
2022/10/03 03:22:45;;;;;;;5.13;2.97;;;20.50;67.80;;;;;;4819974;29;88567;-80
2022/10/03 03:25:32;;;;;;;3.92;2.55;;;20.50;67.80;;;;;;4821196;29;88090;-80
2022/10/03 03:28:06;;;;;;;4.35;2.60;;;20.50;67.80;;;;;;4820572;29;87894;-80
2022/10/03 03:30:47;;;;;;;3.13;2.67;;;20.50;67.60;;;;;;4820396;29;89609;-80
2022/10/03 03:33:31;;;;;;;3.83;2.47;;;20.50;67.70;;;;;;4819223;29;88786;-81
2022/10/03 03:35:59;;;;;;;3.55;2.60;;;20.50;67.70;;;;;;4820514;29;88286;-80
2022/10/03 03:38:42;;;;;;;5.22;2.40;;;20.50;67.50;;;;;;4821542;29;87131;-80
2022/10/03 03:41:26;;;;;;;3.90;2.70;;;20.50;67.60;;;;;;4874284;28;87815;-80
2022/10/03 03:43:58;;;;;;;5.05;3.00;;;20.50;67.70;;;;;;4878794;28;89825;-80
2022/10/03 03:46:37;;;;;;;3.83;2.30;;;20.50;67.60;;;;;;4934935;28;94295;-81
2022/10/03 03:49:22;;;;;;;;;;;20.50;67.60;;;;;;4936190;28;86990;-80
2022/10/03 03:51:56;;;;;;;4.07;2.53;;;20.50;67.60;;;;;;4919695;28;90156;-81
2022/10/03 03:55:00;;;;;;;4.45;2.78;;;20.50;67.50;;;;;;4934724;28;87519;-80
2022/10/03 03:57:44;;;;;;;4.03;2.58;;;20.50;67.30;;;;;;4888184;28;91503;-80
2022/10/03 04:00:16;;;;;;;4.68;2.30;;;20.50;67.50;;;;;;4875614;28;87128;-80
2022/10/03 04:03:00;;;;;;;4.50;2.50;;;20.40;67.40;;;;;;4876786;28;88770;-80
2022/10/03 04:05:44;;;;;;;4.10;2.75;;;20.40;67.40;;;;;;4894140;28;92600;-80
2022/10/03 04:08:21;;;;;;;2.60;2.10;;;20.40;67.40;;;;;;4893091;28;88360;-80
2022/10/03 04:11:17;;;;;;;2.90;2.35;;;20.50;67.50;;;;;;4894008;28;88328;-81
2022/10/03 04:13:55;;;;;;;4.22;2.60;;;20.50;67.30;;;;;;4877392;28;89963;-81
2022/10/03 04:19:38;;;;;;;;;;;20.40;67.20;;;;;;4898756;28;86861;-80
2022/10/03 04:22:22;;;;;;;3.58;2.38;;;20.50;67.10;;;;;;4899148;28;87467;-80
2022/10/03 04:25:33;;;;;;;3.53;2.47;;;20.50;67.10;;;;;;4889119;28;87839;-81
2022/10/03 04:28:33;;;;;;;3.80;2.55;;;20.50;67.50;;;;;;4812891;29;88894;-81
2022/10/03 04:31:34;;;;;;;5.30;2.88;;;20.50;67.70;;;;;;4812606;29;89762;-80
2022/10/03 04:34:18;;;;;;;4.47;2.90;;;20.50;68.00;;;;;;4834589;29;87203;-81
2022/10/03 04:36:55;;;;;;;3.53;2.72;;;20.50;67.80;;;;;;4846977;28;87367;-81
2022/10/03 04:39:44;;;;;;;4.63;3.17;;;20.40;68.00;;;;;;4847513;29;89811;-81
2022/10/03 04:42:35;;;;;;;4.43;2.95;;;20.50;68.00;;;;;;4849986;29;90630;-81
2022/10/03 04:45:11;;;;;;;8.02;3.17;;;20.40;67.90;;;;;;4848480;28;87388;-81
2022/10/03 04:47:58;;;;;;;5.00;2.90;;;20.40;67.80;;;;;;4850759;28;86926;-80
2022/10/03 04:50:36;;;;;;;4.22;2.97;;;20.40;67.90;;;;;;4870310;28;92291;-81
2022/10/03 04:53:39;;;;;;;5.93;2.90;;;20.40;67.90;;;;;;4867848;28;88306;-81
2022/10/03 04:56:23;;;;;;;5.32;2.95;;;20.40;67.90;;;;;;4850253;28;87688;-81
2022/10/03 04:59:10;;;;;;;5.63;2.90;;;20.40;67.80;;;;;;4834180;29;91492;-81
2022/10/03 05:01:52;;;;;;;6.70;2.78;;;20.40;67.60;;;;;;4845157;29;89004;-81
2022/10/03 05:04:46;;;;;;;4.18;2.70;;;20.40;67.80;;;;;;4901817;28;88472;-81
2022/10/03 05:07:41;;;;;;;3.40;2.75;;;20.40;67.60;;;;;;4930359;28;87916;-82
2022/10/03 05:10:34;;;;;;;4.60;2.72;;;20.40;67.50;;;;;;4946034;28;87447;-80
2022/10/03 05:13:07;;;;;;;10.80;4.40;;;20.50;67.20;;;;;;4948191;28;88472;-81
2022/10/03 05:15:51;;;;;;;17.75;5.30;;;20.50;67.00;;;;;;4927236;28;87673;-81
2022/10/03 05:18:43;;;;;;;20.77;6.07;;;20.50;67.20;;;;;;4937369;28;87410;-81
2022/10/03 05:21:23;;;;;;;21.73;5.60;;;20.40;67.30;;;;;;4946588;28;88371;-80
2022/10/03 05:24:01;;;;;;;21.55;6.68;;;20.50;67.20;;;;;;4944519;28;89807;-81
2022/10/03 05:26:58;;;;;;;26.27;6.25;;;20.70;67.00;;;;;;4937326;28;91564;-80
2022/10/03 05:29:45;;;;;;;20.98;6.50;;;20.70;66.70;;;;;;4937267;28;87528;-80
2022/10/03 05:32:13;;;;;;;25.35;6.93;;;20.80;65.70;;;;;;4939803;28;88945;-82
2022/10/03 05:35:06;;;;;;;20.70;6.83;;;20.80;65.90;;;;;;4938198;28;88253;-81
2022/10/03 05:37:37;;;;;;;23.17;5.82;;;20.80;66.10;;;;;;4937546;28;89144;-81
2022/10/03 05:40:19;;;;;;;23.20;7.07;;;20.90;66.00;;;;;;4939884;28;87438;-82
2022/10/03 05:43:06;;;;;;;22.65;6.45;;;21.00;65.90;;;;;;4938349;28;88639;-80
2022/10/03 05:45:51;;;;;;;21.85;5.63;;;20.90;64.70;;;;;;4939105;28;88406;-81
2022/10/03 05:48:55;;;;;;;21.55;6.13;;;21.00;64.90;;;;;;4937955;28;88333;-81
2022/10/03 05:51:37;;;;;;;21.27;5.97;;;21.10;63.60;;;;;;4937711;28;87503;-81
2022/10/03 05:54:39;;;;;;;18.50;6.13;;;21.00;64.50;;;;;;4940929;28;86889;-81
2022/10/03 05:57:19;;;;;;;25.83;6.72;;;21.00;64.60;;;;;;4939688;28;89770;-81
2022/10/03 05:59:54;;;;;;;22.80;5.95;;;21.10;64.60;;;;;;4949092;28;88858;-81
2022/10/03 06:02:53;;;;;;;21.83;5.75;;;21.10;63.20;;;;;;4946226;28;88507;-81
2022/10/03 06:05:22;;;;;;;18.55;6.07;;;21.10;63.70;;;;;;4937722;28;90182;-81
2022/10/03 06:08:09;;;;;;;29.05;7.57;;;21.00;64.10;;;;;;4940693;28;88970;-85
2022/10/03 06:10:48;;;;;;;23.92;6.85;;;21.10;64.00;;;;;;4941854;28;87522;-85
2022/10/03 06:13:29;;;;;;;21.17;5.60;;;21.00;63.90;;;;;;4943560;28;87533;-86
2022/10/03 06:16:16;;;;;;;25.48;6.63;;;21.00;64.50;;;;;;4939311;28;90001;-83
2022/10/03 06:19:24;;;;;;;28.80;7.07;;;21.00;64.50;;;;;;4940779;28;88614;-83
2022/10/03 06:22:16;;;;;;;23.45;6.70;;;21.00;64.10;;;;;;4939090;28;88910;-83
2022/10/03 06:25:14;;;;;;;24.38;6.25;;;20.90;64.40;;;;;;4940837;28;87600;-83
2022/10/03 06:28:04;;;;;;;24.15;6.25;;;20.90;64.90;;;;;;4927342;28;87610;-84
2022/10/03 06:31:01;;;;;;;23.27;6.45;;;20.80;65.00;;;;;;4912941;28;89318;-83
2022/10/03 06:34:08;;;;;;;32.60;6.50;;;20.80;64.90;;;;;;4940550;28;88338;-82
2022/10/03 06:36:51;;;;;;;19.10;6.00;;;20.80;64.60;;;;;;4953072;28;86951;-85
2022/10/03 06:39:48;;;;;;;23.17;6.45;;;20.90;64.50;;;;;;4948674;28;87479;-84
2022/10/03 06:42:40;;;;;;;22.02;6.55;;;20.80;64.70;;;;;;4945067;28;87556;-85
2022/10/03 06:45:36;;;;;;;19.15;5.75;;;20.80;64.70;;;;;;4940943;28;87973;-84
2022/10/03 06:48:21;;;;;;;20.25;5.75;;;20.80;64.60;;;;;;4948899;28;87114;-85
2022/10/03 06:51:36;;;;;;;20.60;6.50;;;20.90;64.60;;;;;;4950412;28;87901;-84
2022/10/03 06:54:37;;;;;;;25.38;5.95;;;20.90;64.40;;;;;;4950404;28;93348;-83
2022/10/03 06:57:22;;;;;;;20.63;5.45;;;21.00;63.60;;;;;;4946983;28;87442;-83
2022/10/03 07:00:09;;;;;;;17.60;6.00;;;20.90;64.00;;;;;;4944693;28;88755;-82
2022/10/03 07:02:43;;;;;;;21.33;5.78;;;21.00;63.80;;;;;;4936718;28;91212;-83
2022/10/03 07:05:44;;;;;;;16.85;5.70;;;20.90;64.00;;;;;;4937882;28;87759;-83
2022/10/03 07:08:34;;;;;;;19.35;6.25;;;20.90;64.00;;;;;;4937236;28;87495;-82
2022/10/03 07:11:09;;;;;;;26.35;6.88;;;21.00;64.00;;;;;;4938752;28;87199;-83
2022/10/03 07:14:17;;;;;;;20.05;5.60;;;21.00;64.00;;;;;;4928172;28;87153;-83
2022/10/03 07:17:21;;;;;;;41.08;7.68;;;21.00;63.90;;;;;;4938590;28;87650;-84
2022/10/03 07:20:01;;;;;;;24.85;6.10;;;21.00;63.80;;;;;;4928453;28;87676;-82
2022/10/03 07:22:35;;;;;;;;;;;21.10;64.10;;;;;;4932514;28;87668;-82
2022/10/03 07:25:28;;;;;;;29.92;6.80;;;21.10;64.00;;;;;;4916440;28;88191;-81
2022/10/03 07:27:57;;;;;;;24.65;5.78;;;21.10;64.10;;;;;;4897981;28;91622;-82
2022/10/03 07:30:43;;;;;;;19.75;6.15;;;21.10;64.20;;;;;;4914986;28;91191;-82
2022/10/03 07:33:33;;;;;;;24.67;5.90;;;21.10;64.10;;;;;;4915127;28;87743;-82
2022/10/03 07:40:00;;;;;;;21.27;6.03;;;21.00;64.40;;;;;;4862415;28;87708;-83
2022/10/03 07:43:00;;;;;;;30.80;6.28;;;21.10;64.20;;;;;;4880036;28;88430;-83
2022/10/03 07:45:47;;;;;;;24.55;6.00;;;21.10;64.40;;;;;;4880078;28;87545;-83
2022/10/03 07:48:17;;;;;;;21.65;6.13;;;21.10;64.30;;;;;;4883809;28;87081;-84
2022/10/03 07:50:49;;;;;;;18.20;6.13;;;21.10;64.50;;;;;;4881105;28;87567;-81
2022/10/03 07:53:23;;;;;;;22.40;6.88;;;21.10;64.60;;;;;;4878180;28;92379;-82
2022/10/03 07:55:54;;;;;;;20.85;6.15;;;21.10;64.60;;;;;;4879591;28;88650;-82
2022/10/03 07:58:43;;;;;;;22.17;6.15;;;21.20;64.60;;;;;;4882432;28;87799;-82
2022/10/03 08:02:06;;;;;;;26.52;7.03;;;21.20;64.70;;;;;;4878965;28;89085;-83
2022/10/03 08:04:58;;;;;;;20.17;5.72;;;21.20;64.40;;;;;;4812801;29;90580;-86
2022/10/03 08:08:09;;;;;;;24.85;7.10;;;21.20;64.40;;;;;;4821316;29;87090;-87
2022/10/03 08:11:09;;;;;;;18.92;5.28;;;21.20;64.50;;;;;;4812772;29;87685;-82
2022/10/03 08:14:06;;;;;;;26.23;7.03;;;21.30;64.20;;;;;;4821007;29;87589;-83
2022/10/03 08:16:59;;;;;;;21.77;6.22;;;21.30;64.20;;;;;;4820147;29;87975;-82
2022/10/03 08:20:01;;;;;;;25.98;6.45;;;21.30;64.20;;;;;;4809603;29;87206;-81
2022/10/03 08:22:50;;;;;;;20.35;5.90;;;21.30;64.10;;;;;;4802746;29;89112;-81
2022/10/03 08:25:37;;;;;;;20.13;5.82;;;21.40;64.50;;;;;;4810405;29;90796;-81
2022/10/03 08:28:22;;;;;;;24.23;5.75;;;21.40;64.40;;;;;;4820129;29;88395;-81
2022/10/03 08:31:08;;;;;;;20.27;5.97;;;21.40;64.40;;;;;;4821098;29;87450;-82
2022/10/03 08:34:00;;;;;;;26.90;6.88;;;21.50;64.20;;;;;;4822762;29;87687;-83
2022/10/03 08:36:31;;;;;;;17.35;5.82;;;21.50;64.60;;;;;;4845269;29;89977;-83
2022/10/03 08:39:17;;;;;;;23.45;5.28;;;21.40;64.30;;;;;;4860939;28;87466;-82
2022/10/03 08:41:54;;;;;;;19.08;6.47;;;21.40;64.40;;;;;;4861397;28;87343;-82
2022/10/03 08:45:01;;;;;;;25.05;6.97;;;21.40;64.30;;;;;;4859644;28;91717;-83
2022/10/03 08:47:48;;;;;;;23.40;6.40;;;21.50;64.30;;;;;;4843436;29;95142;-82
2022/10/03 08:50:37;;;;;;;23.90;5.85;;;21.50;64.40;;;;;;4861435;28;92894;-83
2022/10/03 08:53:12;;;;;;;20.45;6.55;;;21.50;63.80;;;;;;4888043;28;88899;-83
2022/10/03 08:55:54;;;;;;;18.80;5.93;;;21.50;63.50;;;;;;4904529;28;89924;-83
2022/10/03 08:59:06;;;;;;;24.80;6.00;;;21.60;63.50;;;;;;4920498;28;88891;-84
2022/10/03 09:02:08;;;;;;;21.45;6.13;;;21.60;63.30;;;;;;4916188;28;90066;-81
2022/10/03 09:05:09;;;;;;;19.45;6.40;;;21.50;62.90;;;;;;4917197;28;87958;-81
2022/10/03 09:07:58;;;;;;;19.38;6.20;;;21.50;63.00;;;;;;4917878;28;87894;-83
2022/10/03 09:11:12;;;;;;;19.88;5.97;;;21.50;63.20;;;;;;4917334;28;88755;-82
2022/10/03 09:14:09;;;;;;;15.15;5.90;;;21.60;62.90;;;;;;4917853;28;88418;-83
2022/10/03 09:16:47;;;;;;;19.25;6.40;;;21.60;62.90;;;;;;4918487;28;87804;-82
2022/10/03 09:19:28;;;;;;;19.75;5.63;;;21.70;63.20;;;;;;4917073;28;87780;-82
2022/10/03 09:22:08;;;;;;;19.63;6.22;;;21.60;63.70;;;;;;4917204;28;88676;-83
2022/10/03 09:25:04;;;;;;;18.48;5.05;;;21.60;63.70;;;;;;4938727;28;89193;-82
2022/10/03 09:27:43;;;;;;;18.08;5.35;;;21.60;63.90;;;;;;4947221;28;86883;-82
2022/10/03 09:30:23;;;;;;;15.13;5.15;;;21.50;64.30;;;;;;4949070;28;95115;-81
2022/10/03 09:33:22;;;;;;;19.48;6.45;;;21.50;64.50;;;;;;4943346;28;88534;-81
2022/10/03 09:36:03;;;;;;;;;;;21.50;64.40;;;;;;4915845;28;93461;-81
2022/10/03 09:38:46;;;;;;;16.45;5.22;;;21.60;64.00;;;;;;4917845;28;87483;-81
2022/10/03 09:41:37;;;;;;;20.83;5.88;;;21.50;63.90;;;;;;4915886;28;89432;-80
2022/10/03 09:44:21;;;;;;;12.52;4.82;;;21.60;63.70;;;;;;4934250;28;87899;-80
2022/10/03 09:47:28;;;;;;;17.52;5.07;;;21.60;63.50;;;;;;4940958;28;87330;-81
2022/10/03 09:50:20;;;;;;;15.00;4.97;;;21.60;63.60;;;;;;4940313;28;87836;-81
2022/10/03 09:53:16;;;;;;;18.58;4.95;;;21.70;63.60;;;;;;4939823;28;87567;-81
2022/10/03 09:56:06;;;;;;;15.35;4.82;;;21.60;63.40;;;;;;4935948;28;89263;-82
2022/10/03 09:59:00;;;;;;;22.77;5.05;;;21.60;63.20;;;;;;4934121;28;88315;-81
2022/10/03 10:02:08;;;;;;;15.73;4.90;;;21.60;63.10;;;;;;4933324;28;87168;-82
2022/10/03 10:04:55;;;;;;;19.38;4.85;;;21.60;62.80;;;;;;4933786;28;87114;-81
2022/10/03 10:07:55;;;;;;;19.50;4.60;;;21.60;62.80;;;;;;4935616;28;88234;-82
2022/10/03 10:10:55;;;;;;;12.52;4.40;;;21.60;63.60;;;;;;4935452;28;88787;-82
2022/10/03 10:13:32;;;;;;;14.98;4.68;;;21.50;63.90;;;;;;4934278;28;87121;-82
2022/10/03 10:16:20;;;;;;;13.98;4.80;;;21.50;64.30;;;;;;4934778;28;87000;-82
2022/10/03 10:19:36;;;;;;;12.90;5.07;;;21.50;64.60;;;;;;4934760;28;89641;-81
2022/10/03 10:22:16;;;;;;;14.70;5.63;;;21.50;64.60;;;;;;4862813;28;88473;-81
2022/10/03 10:25:14;;;;;;;14.65;4.82;;;21.50;62.90;;;;;;4862090;28;87068;-82
2022/10/03 10:27:54;;;;;;;15.52;5.15;;;21.50;63.20;;;;;;4874618;28;87668;-81
2022/10/03 10:30:23;;;;;;;16.08;4.18;;;21.50;65.10;;;;;;4867709;28;88716;-82
2022/10/03 10:33:19;;;;;;;15.02;5.35;;;21.50;64.60;;;;;;4846210;29;87794;-82
2022/10/03 10:36:16;;;;;;;15.73;5.20;;;21.50;64.80;;;;;;4873455;28;86951;-80
2022/10/03 10:39:21;;;;;;;13.75;4.03;;;21.50;64.90;;;;;;4873984;28;87419;-82
2022/10/03 10:42:04;;;;;;;11.55;4.03;;;21.40;64.90;;;;;;4873348;28;93194;-80
2022/10/03 10:44:57;;;;;;;19.35;4.70;;;21.40;65.10;;;;;;4873580;28;87941;-80
2022/10/03 10:47:28;;;;;;;14.77;4.07;;;21.50;65.00;;;;;;4871716;28;88402;-78
2022/10/03 10:50:32;;;;;;;13.65;4.10;;;21.50;64.90;;;;;;4855182;28;87644;-78
2022/10/03 10:53:16;;;;;;;12.23;3.80;;;21.40;65.00;;;;;;4852466;29;87235;-80
2022/10/03 10:56:04;;;;;;;16.55;4.63;;;21.50;64.90;;;;;;4858480;28;91788;-78
2022/10/03 10:58:38;;;;;;;11.73;3.55;;;21.40;65.10;;;;;;4929308;28;88041;-78
2022/10/03 11:01:41;;;;;;;13.38;4.35;;;21.40;65.00;;;;;;4931363;28;87109;-78
2022/10/03 11:04:37;;;;;;;14.43;5.03;;;21.50;65.10;;;;;;4885602;28;88185;-77
2022/10/03 11:07:10;;;;;;;13.75;4.22;;;21.50;64.90;;;;;;4875787;28;90217;-78
2022/10/03 11:10:00;;;;;;;16.48;4.25;;;21.40;64.90;;;;;;4877984;28;87483;-79
2022/10/03 11:13:12;;;;;;;11.98;3.97;;;21.40;64.80;;;;;;4891375;28;87554;-80
2022/10/03 11:15:53;;;;;;;16.52;3.70;;;21.40;64.90;;;;;;4839683;28;93113;-80
2022/10/03 11:18:24;;;;;;;11.45;3.65;;;21.50;65.00;;;;;;4853584;28;89464;-80
2022/10/03 11:21:11;;;;;;;15.85;5.20;;;21.40;64.90;;;;;;4854844;28;87285;-80
2022/10/03 11:23:45;;;;;;;15.95;4.20;;;21.50;64.80;;;;;;4858979;28;87904;-79
2022/10/03 11:26:48;;;;;;;13.65;4.65;;;21.50;64.90;;;;;;4855280;28;88214;-78
2022/10/03 11:29:45;;;;;;;11.50;3.63;;;21.40;65.00;;;;;;4855953;28;93219;-78
2022/10/03 11:32:24;;;;;;;15.60;4.57;;;21.50;65.00;;;;;;4857038;28;87446;-78
2022/10/03 11:35:25;;;;;;;16.23;4.13;;;21.50;65.00;;;;;;4856695;28;87315;-78
2022/10/03 11:38:05;;;;;;;12.52;3.70;;;21.40;65.00;;;;;;4854932;28;89032;-79
2022/10/03 11:40:49;;;;;;;10.60;3.95;;;21.40;64.90;;;;;;4840566;28;88440;-80
2022/10/03 11:43:45;;;;;;;11.23;3.60;;;21.40;64.80;;;;;;4851600;28;88442;-78
2022/10/03 11:46:32;;;;;;;11.40;3.33;;;21.40;64.80;;;;;;4853456;28;87283;-78
2022/10/03 11:54:38;;;;;;;16.48;4.43;;;21.40;64.70;;;;;;5826118;22;88447;-88
2022/10/03 11:57:16;;;;;;;8.00;3.40;;;21.40;64.80;;;;;;4962011;28;86931;-88
2022/10/03 12:00:01;;;;;;;11.07;3.70;;;21.40;64.60;;;;;;4961272;28;87715;-86
2022/10/03 12:02:48;;;;;;;11.43;3.72;;;21.40;64.60;;;;;;4961816;28;88143;-84
2022/10/03 12:05:51;;;;;;;8.90;4.13;;;21.40;64.40;;;;;;4959908;28;87014;-83
2022/10/03 12:11:45;;;;;;;9.70;3.80;;;21.50;64.40;;;;;;4958358;28;92733;-84
2022/10/03 12:14:22;;;;;;;10.32;3.70;;;21.50;64.40;;;;;;4959204;28;92655;-84
2022/10/03 12:17:04;;;;;;;9.15;3.15;;;21.40;64.10;;;;;;4959122;28;87080;-84
2022/10/03 12:20:02;;;;;;;11.07;3.20;;;21.40;64.40;;;;;;4958383;28;87023;-83
2022/10/03 12:22:36;;;;;;;13.48;3.13;;;21.40;63.80;;;;;;4958869;28;88720;-84
2022/10/03 12:25:24;;;;;;;14.82;3.50;;;21.40;62.90;;;;;;4974967;28;90808;-86
2022/10/03 12:27:59;;;;;;;12.30;3.40;;;21.50;63.00;;;;;;4959830;28;88436;-83
2022/10/03 12:30:30;;;;;;;14.60;3.83;;;21.50;62.70;;;;;;4959015;28;86451;-84
2022/10/03 12:33:01;;;;;;;8.13;3.05;;;21.60;62.10;;;;;;4972536;28;89967;-83
2022/10/03 12:35:45;;;;;;;15.32;3.17;;;21.50;62.60;;;;;;4959525;28;88106;-84
2022/10/03 12:38:23;;;;;;;10.93;2.75;;;21.50;60.00;;;;;;4957593;28;87875;-84
2022/10/03 12:41:20;;;;;;;11.43;2.75;;;21.50;59.70;;;;;;4957429;28;87573;-83
2022/10/03 12:44:26;;;;;;;16.95;3.83;;;21.40;59.20;;;;;;4957233;28;88173;-83
2022/10/03 12:47:16;;;;;;;12.93;2.83;;;21.40;59.50;;;;;;4957228;28;88355;-84
2022/10/03 12:50:07;;;;;;;12.02;3.08;;;21.40;60.10;;;;;;4958459;28;87494;-83
2022/10/03 12:52:42;;;;;;;23.85;4.63;;;21.40;60.20;;;;;;4957501;28;87718;-84
2022/10/03 12:55:17;;;;;;;20.73;4.13;;;21.40;57.60;;;;;;4909539;28;1396986;-84
2022/10/03 12:58:16;;;;;;;19.73;3.10;;;21.40;56.80;;;;;;4959679;28;88161;-83
2022/10/03 13:01:04;;;;;;;12.60;2.67;;;21.30;57.20;;;;;;4958679;28;86846;-84
2022/10/03 13:03:43;;;;;;;13.85;2.72;;;21.30;56.70;;;;;;4957569;28;87373;-82
2022/10/03 13:06:27;;;;;;;15.35;2.92;;;21.40;57.20;;;;;;4955522;28;89220;-83
2022/10/03 13:09:11;;;;;;;11.90;2.80;;;21.40;57.60;;;;;;4958249;28;88556;-82
2022/10/03 13:11:55;;;;;;;13.30;2.95;;;21.40;57.70;;;;;;4958474;28;87001;-85
2022/10/03 13:14:27;;;;;;;13.15;3.00;;;21.40;58.30;;;;;;4959964;28;90659;-84
2022/10/03 13:17:24;;;;;;;13.32;3.00;;;21.40;58.40;;;;;;4958493;28;88576;-84
2022/10/03 13:20:02;;;;;;;19.23;3.65;;;21.40;58.50;;;;;;4928188;28;87952;-83
2022/10/03 13:23:18;;;;;;;14.68;3.25;;;21.40;58.60;;;;;;4929821;28;87491;-82
2022/10/03 13:26:26;;;;;;;12.35;3.03;;;21.40;58.90;;;;;;4927311;28;90576;-84
2022/10/03 13:29:32;;;;;;;9.68;2.47;;;21.40;58.90;;;;;;4877201;28;89203;-83
2022/10/03 13:32:00;;;;;;;17.42;3.47;;;21.50;58.90;;;;;;4875419;28;88890;-85
2022/10/03 13:34:32;;;;;;;15.10;3.45;;;21.50;58.70;;;;;;4875580;28;88615;-86
2022/10/03 13:37:08;;;;;;;15.32;3.97;;;21.50;58.80;;;;;;4875698;28;87658;-86
2022/10/03 13:39:52;;;;;;;14.52;3.88;;;21.50;58.90;;;;;;4868530;28;88862;-86
2022/10/03 13:42:32;;;;;;;21.58;4.40;;;21.50;59.00;;;;;;4875339;28;87850;-86
2022/10/03 13:45:03;;;;;;;;;;;21.50;59.10;;;;;;4875042;28;87754;-86
2022/10/03 13:47:47;;;;;;;21.63;4.68;;;21.50;59.00;;;;;;4877945;28;87566;-86
2022/10/03 13:50:17;;;;;;;24.75;5.75;;;21.50;59.30;;;;;;4875811;28;88425;-86
2022/10/03 13:52:59;;;;;;;19.17;4.90;;;21.40;59.10;;;;;;4875963;28;87770;-86
2022/10/03 13:55:52;;;;;;;17.63;4.20;;;21.40;59.30;;;;;;4874845;28;87463;-85
2022/10/03 13:58:23;;;;;;;18.50;4.35;;;21.40;59.50;;;;;;4894227;28;87815;-86
2022/10/03 14:00:51;;;;;;;20.73;4.68;;;21.40;60.00;;;;;;4926651;28;91564;-86
2022/10/03 14:03:47;;;;;;;24.17;5.77;;;21.50;60.80;;;;;;4933163;28;89048;-86
2022/10/03 14:07:10;;;;;;;19.70;4.28;;;21.40;60.70;;;;;;4874676;28;87035;-85
2022/10/03 14:10:25;;;;;;;21.17;4.90;;;21.40;60.90;;;;;;4856570;29;87472;-86
2022/10/03 14:13:22;;;;;;;16.73;4.32;;;21.40;61.50;;;;;;4800239;29;88138;-86
2022/10/03 14:15:52;;;;;;;19.25;4.85;;;21.50;62.00;;;;;;4784420;29;90667;-86
2022/10/03 14:18:26;;;;;;;25.73;5.13;;;21.50;62.00;;;;;;4801751;29;87150;-83
2022/10/03 14:21:13;;;;;;;18.90;4.32;;;21.50;62.40;;;;;;4806502;29;89831;-85
2022/10/03 14:23:47;;;;;;;17.02;4.38;;;21.50;62.50;;;;;;4807565;29;87628;-86
2022/10/03 14:26:32;;;;;;;16.10;4.15;;;21.60;62.40;;;;;;4807492;29;88729;-86
2022/10/03 14:29:07;;;;;;;17.63;3.72;;;21.60;62.60;;;;;;4806737;29;88574;-85
2022/10/03 14:31:56;;;;;;;13.07;4.43;;;21.60;62.90;;;;;;4805614;29;89187;-84
2022/10/03 14:35:00;;;;;;;17.30;4.22;;;21.60;62.90;;;;;;4790454;29;91008;-84
2022/10/03 14:37:52;;;;;;;17.15;4.22;;;21.70;62.90;;;;;;4806379;29;92442;-85
2022/10/03 14:40:26;;;;;;;17.85;3.97;;;21.70;63.00;;;;;;4801559;29;87783;-85
2022/10/03 14:42:55;;;;;;;11.43;3.60;;;21.70;63.00;;;;;;4851119;28;89077;-84